Latest Coastal Weather Observations for Wilsons Promontory

IDV60701

Issued at 1:21 pm EST Tuesday 28 July 2015 (issued every 10 minutes, with the page automatically refreshed every 10 minutes)

About coastal observations | Map of coastal stations | Coastal observations for VIC | Marine services | Other Formats
Station Details ID: 085096 Name: WILSONS PROMONTORY LIGHTHOUSE Lat: -39.13 Lon: 146.42 Height: 95.0 m
Data from the previous 72 hours. | See also: Recent months at Wilsons Promontory
Date/Time
EST
Temp

°C
Wind Pressure Rain
since 9am
mm
Weather Cloud Vis
km
Sea
Height
m
Swell
Dir
 
Speed
knots
Gust
knots
hPa Trend Height
m
Period
s
Dir
28/01:00pm 11.9 W 22 30 1030.0 - 0.0 - - - - - - -
28/12:31pm 12.1 W 22 35 1030.3 - 0.0 - - - - - - -
28/12:30pm 12.1 W 22 30 1030.3 - 0.0 - - - - - - -
28/12:00pm 12.2 W 21 31 1030.8 - 0.0 - - - - - - -
28/11:41am 12.2 W 21 31 1031.2 - 0.0 - - - - - - -
28/11:30am 12.1 W 22 29 1031.1 - 0.0 - - - - - - -
28/11:00am 11.8 W 20 28 1031.3 - 0.0 - - - - - - -
28/10:30am 11.7 W 19 29 1031.5 - 0.0 - - - - - - -
28/10:00am 11.7 W 21 31 1031.1 - 0.0 - - - - - - -
28/09:30am 11.7 W 20 31 1030.9 - 0.0 - - - - - - -
28/09:09am 11.2 W 22 32 1030.7 - 0.0 - - - - - - -
28/09:00am 11.2 W 26 33 1030.6 - 1.0 - - - - - - -
28/08:30am 11.3 W 24 31 1030.1 - 1.0 - - - - - - -
28/08:00am 11.0 W 23 33 1029.8 - 1.0 - - - - - - -
28/07:34am 10.8 W 24 34 1029.5 - 1.0 - - - - - - -
28/07:30am 10.8 W 22 30 1029.4 - 1.0 - - - - - - -
28/07:00am 10.8 W 24 35 1029.1 - 1.0 - - - - - - -
28/06:58am 10.8 W 25 35 1029.1 - 1.0 - - - - - - -
28/06:30am 10.7 W 23 31 1029.0 - 1.0 - - - - - - -
28/06:00am 10.9 W 24 35 1028.5 - 1.0 - - - - - - -
28/05:54am 10.9 W 25 35 1028.2 - 1.0 - - - - - - -
28/05:30am 10.8 W 24 32 1028.0 - 1.0 - - - - - - -
28/05:00am 10.9 W 24 33 1027.6 - 1.0 - - - - - - -
28/04:30am 10.9 W 21 32 1027.5 - 1.0 - - - - - - -
28/04:20am 10.9 W 21 31 1027.5 - 1.0 - - - - - - -
28/04:00am 10.8 W 23 30 1027.3 - 1.0 - - - - - - -
28/03:30am 10.7 W 24 34 1026.9 - 1.0 - - - - - - -
28/03:27am 10.7 W 23 33 1027.1 - 1.0 - - - - - - -
28/03:00am 10.3 W 23 29 1027.3 - 1.0 - - - - - - -
28/02:32am 10.6 W 20 30 1027.2 - 0.8 - - - - - - -
28/02:30am 10.7 W 20 28 1027.3 - 0.8 - - - - - - -
28/02:00am 10.5 W 23 29 1026.8 - 0.8 - - - - - - -
28/01:30am 10.8 W 22 30 1026.4 - 0.8 - - - - - - -
28/01:00am 10.5 W 24 30 1026.3 - 0.4 - - - - - - -
28/12:52am 10.7 W 26 36 1026.2 - 0.4 - - - - - - -
28/12:30am 10.9 W 29 37 1025.7 - 0.4 - - - - - - -
28/12:00am 10.9 W 30 40 1025.7 - 0.4 - - - - - - -
 
Date/Time
EST
Temp

°C
Wind Pressure Rain
since 9am
mm
Weather Cloud Vis
km
Sea
Height
m
Swell
Dir
 
Speed
knots
Gust
knots
hPa Trend Height
m
Period
s
Dir
27/11:32pm 10.8 W 30 42 1025.2 - 0.4 - - - - - - -
27/11:30pm 10.7 W 29 38 1025.3 - 0.4 - - - - - - -
27/11:00pm 11.0 W 28 39 1025.4 - 0.4 - - - - - - -
27/10:30pm 11.1 W 29 43 1025.3 - 0.4 - - - - - - -
27/10:04pm 11.1 W 35 45 1025.0 - 0.4 - - - - - - -
27/10:00pm 11.1 W 36 45 1025.1 - 0.4 - - - - - - -
27/09:30pm 11.1 W 28 40 1025.1 - 0.4 - - - - - - -
27/09:00pm 11.0 W 28 40 1025.0 - 0.4 - - - - - - -
27/08:30pm 10.8 W 29 39 1025.3 - 0.4 - - - - - - -
27/08:00pm 10.7 W 27 38 1025.0 - 0.4 - - - - - - -
27/07:30pm 10.5 W 30 40 1024.6 - 0.4 - - - - - - -
27/07:11pm 10.4 W 31 42 1024.4 - 0.4 - - - - - - -
27/07:00pm 10.5 W 31 39 1024.6 - 0.4 - - - - - - -
27/06:30pm 10.3 W 29 40 1024.3 - 0.4 - - - - - - -
27/06:00pm 9.5 W 36 47 1023.3 - 0.4 - - - - - - -
27/05:30pm 10.4 W 35 49 1023.2 - 0.2 - - - - - - -
27/05:01pm 10.3 W 33 44 1023.1 - 0.2 - - - - - - -
27/05:00pm 10.3 W 33 42 1023.3 - 0.2 - - - - - - -
27/04:00pm 10.8 W 32 44 1022.8 - 0.0 - - - - - - -
27/03:30pm 10.6 W 30 42 1022.7 - 0.0 - - - - - - -
27/03:00pm 10.8 W 28 41 1022.4 - 0.0 - - - - - - -
27/02:30pm 10.5 W 31 41 1021.9 - 0.0 - - - - - - -
27/02:00pm 10.8 W 30 41 1021.8 - 0.0 - - - - - - -
27/01:33pm 10.7 W 31 41 1022.0 - 0.0 - - - - - - -
27/01:30pm 10.7 W 32 41 1021.8 - 0.0 - - - - - - -
27/01:00pm 10.9 W 27 40 1022.0 - 0.0 - - - - - - -
27/12:38pm 10.6 W 29 39 1022.5 - 0.0 - - - - - - -
27/12:30pm 10.9 W 31 39 1022.5 - 0.0 - - - - - - -
27/12:00pm 10.8 W 29 40 1022.8 - 0.0 - - - - - - -
27/11:39am 10.9 W 25 35 1022.8 - 0.0 - - - - - - -
27/11:30am 11.0 W 28 36 1022.9 - 0.0 - - - - - - -
27/11:06am 10.8 W 23 33 1022.6 - 0.0 - - - - - - -
27/11:00am 11.0 W 24 32 1022.7 - 0.0 - - - - - - -
27/10:30am 10.6 W 27 38 1022.3 - 0.0 - - - - - - -
27/10:00am 10.6 W 28 40 1022.1 - 0.0 - - - - - - -
27/09:47am 10.4 W 26 36 1021.7 - 0.0 - - - - - - -
27/09:30am 10.2 W 28 37 1021.6 - 0.0 - - - - - - -
27/09:00am 10.1 W 33 45 1020.9 - 9.8 - - - - - - -
27/08:30am 9.7 W 25 39 1021.2 - 9.8 - - - - - - -
27/08:24am 9.5 W 24 36 1021.1 - 9.8 - - - - - - -
27/08:23am 9.5 W 21 36 1021.3 - 9.8 - - - - - - -
27/08:00am 9.7 WSW 34 46 1020.0 - 9.8 - - - - - - -
27/07:30am 8.8 W 34 45 1019.9 - 9.8 - - - - - - -
27/07:28am 9.0 WSW 35 45 1019.7 - 9.8 - - - - - - -
27/07:11am 9.3 WSW 37 43 1019.2 - 9.8 - - - - - - -
27/07:02am 8.2 W 25 48 1020.0 - 9.8 - - - - - - -
27/07:00am 8.1 W 28 51 1019.8 - 9.8 - - - - - - -
27/06:59am 8.0 W 29 51 1019.7 - 9.8 - - - - - - -
27/06:54am 8.2 WSW 41 51 1018.8 - 9.6 - - - - - - -
27/06:53am 8.3 WSW 45 51 1018.5 - 9.6 - - - - - - -
27/06:52am 8.4 WSW 32 51 1018.5 - 9.6 - - - - - - -
27/06:30am 8.4 W 29 39 1018.9 - 9.6 - - - - - - -
27/06:00am 8.6 WSW 33 48 1018.7 - 9.2 - - - - - - -
27/05:57am 8.4 WSW 38 49 1018.5 - 9.2 - - - - - - -
27/05:45am 7.9 SW 42 49 1017.6 - 9.2 - - - - - - -
27/05:42am 9.0 WSW 29 48 1018.3 - 9.2 - - - - - - -
27/05:41am 9.4 W 25 48 1018.5 - 9.2 - - - - - - -
27/05:30am 9.4 WSW 40 55 1017.2 - 9.2 - - - - - - -
27/05:08am 8.4 WSW 37 56 1017.1 - 9.2 - - - - - - -
27/05:07am 8.5 WSW 38 57 1017.0 - 9.2 - - - - - - -
27/05:00am 8.4 SW 51 61 1016.1 - 9.2 - - - - - - -
27/04:53am 9.3 WSW 47 58 1016.4 - 9.2 - - - - - - -
27/04:30am 7.8 W 35 48 1017.1 - 9.2 - - - - - - -
27/04:15am 7.9 W 30 49 1017.1 - 9.0 - - - - - - -
27/04:11am 7.6 WSW 45 49 1016.0 - 9.0 - - - - - - -
27/04:10am 7.4 W 27 49 1016.3 - 9.0 - - - - - - -
27/04:00am 8.8 W 26 38 1017.1 - 8.2 - - - - - - -
27/03:44am 8.8 W 29 50 1016.5 - 8.2 - - - - - - -
27/03:43am 9.2 W 28 50 1016.6 - 8.2 - - - - - - -
27/03:32am 8.9 WSW 46 54 1015.5 - 8.2 - - - - - - -
27/03:30am 9.3 WSW 34 57 1015.5 - 8.2 - - - - - - -
27/03:29am 9.4 WSW 33 59 1015.8 - 8.2 - - - - - - -
27/03:28am 9.3 WSW 31 59 1015.9 - 8.2 - - - - - - -
27/03:20am 9.1 WSW 48 59 1014.6 - 8.2 - - - - - - -
27/03:00am 8.5 W 31 49 1015.9 - 8.2 - - - - - - -
27/02:57am 8.6 W 29 49 1016.0 - 8.2 - - - - - - -
27/02:56am 8.7 W 28 49 1015.9 - 8.2 - - - - - - -
27/02:49am 8.6 WSW 39 57 1015.3 - 8.2 - - - - - - -
27/02:47am 8.1 WSW 41 62 1015.2 - 8.2 - - - - - - -
27/02:43am 7.7 WSW 52 62 1014.9 - 8.2 - - - - - - -
27/02:38am 7.6 SW 56 62 1013.8 - 8.2 - - - - - - -
27/02:36am 8.2 WSW 44 54 1014.7 - 8.2 - - - - - - -
27/02:30am 8.2 W 30 42 1015.7 - 8.2 - - - - - - -
27/02:04am 8.3 WSW 34 59 1015.2 - 8.2 - - - - - - -
27/02:00am 8.3 WSW 48 59 1014.3 - 8.2 - - - - - - -
27/01:59am 8.3 WSW 50 59 1014.0 - 8.2 - - - - - - -
27/01:30am 8.3 W 36 63 1014.4 - 8.2 - - - - - - -
27/01:28am 8.3 W 34 63 1014.6 - 8.2 - - - - - - -
27/01:21am 8.3 WSW 46 59 1013.4 - 8.2 - - - - - - -
27/01:00am 8.3 W 33 55 1014.5 - 8.2 - - - - - - -
27/12:57am 8.3 WSW 45 55 1013.8 - 8.2 - - - - - - -
27/12:55am 8.4 WSW 49 55 1013.7 - 8.2 - - - - - - -
27/12:47am 8.7 WSW 38 57 1014.0 - 8.2 - - - - - - -
27/12:44am 8.5 WSW 54 57 1013.2 - 8.2 - - - - - - -
27/12:30am 8.8 W 36 57 1014.3 - 8.2 - - - - - - -
27/12:27am 8.8 W 34 57 1014.1 - 8.2 - - - - - - -
27/12:26am 8.9 WSW 46 57 1014.1 - 8.2 - - - - - - -
27/12:23am 9.0 WSW 48 57 1012.9 - 8.2 - - - - - - -
27/12:20am 9.1 W 34 58 1014.1 - 8.2 - - - - - - -
27/12:19am 9.0 W 36 58 1013.7 - 8.2 - - - - - - -
27/12:13am 8.5 WSW 47 58 1013.2 - 8.2 - - - - - - -
27/12:00am 8.8 W 32 51 1014.3 - 8.2 - - - - - - -
 
Date/Time
EST
Temp

°C
Wind Pressure Rain
since 9am
mm
Weather Cloud Vis
km
Sea
Height
m
Swell
Dir
 
Speed
knots
Gust
knots
hPa Trend Height
m
Period
s
Dir
26/11:30pm 9.2 WSW 34 54 1013.7 - 8.2 - - - - - - -
26/11:19pm 9.2 W 32 52 1013.4 - 8.2 - - - - - - -
26/11:17pm 9.4 WSW 31 52 1013.4 - 8.2 - - - - - - -
26/11:15pm 9.3 WSW 42 52 1013.1 - 8.2 - - - - - - -
26/11:12pm 9.0 WSW 41 47 1012.8 - 8.2 - - - - - - -
26/11:00pm 8.3 W 30 49 1013.8 - 8.2 - - - - - - -
26/10:59pm 8.3 W 30 50 1013.5 - 8.2 - - - - - - -
26/10:54pm 7.5 W 31 58 1013.5 - 8.2 - - - - - - -
26/10:48pm 7.5 WSW 47 58 1012.1 - 8.0 - - - - - - -
26/10:47pm 7.4 WSW 50 58 1011.7 - 8.0 - - - - - - -
26/10:46pm 7.5 W 34 56 1011.9 - 8.0 - - - - - - -
26/10:30pm 8.3 W 32 44 1013.2 - 8.0 - - - - - - -
26/10:14pm 7.6 W 34 57 1013.0 - 8.0 - - - - - - -
26/10:12pm 7.8 W 35 57 1013.0 - 8.0 - - - - - - -
26/10:09pm 7.7 WSW 47 57 1011.6 - 8.0 - - - - - - -
26/10:07pm 7.8 WSW 52 57 1011.5 - 8.0 - - - - - - -
26/10:00pm 7.3 W 37 63 1012.1 - 7.8 - - - - - - -
26/09:59pm 7.4 W 35 63 1012.3 - 7.8 - - - - - - -
26/09:53pm 8.2 WSW 47 63 1011.3 - 7.4 - - - - - - -
26/09:52pm 8.6 W 36 63 1011.8 - 7.4 - - - - - - -
26/09:30pm 9.0 W 32 42 1012.5 - 7.4 - - - - - - -
26/09:20pm 8.0 W 29 66 1012.2 - 7.4 - - - - - - -
26/09:09pm 8.4 W 40 57 1010.6 - 7.4 - - - - - - -
26/09:08pm 8.5 W 37 47 1010.9 - 7.4 - - - - - - -
26/09:00pm 9.3 W 25 48 1012.2 - 7.4 - - - - - - -
26/08:58pm 9.4 W 24 48 1012.3 - 7.4 - - - - - - -
26/08:30pm 9.4 W 40 57 1011.0 - 7.4 - - - - - - -
26/08:11pm 9.3 W 34 57 1010.8 - 7.4 - - - - - - -
26/08:10pm 9.4 W 33 57 1010.7 - 7.4 - - - - - - -
26/08:00pm 9.2 W 45 56 1009.9 - 7.4 - - - - - - -
26/07:30pm 8.3 W 33 50 1010.6 - 7.4 - - - - - - -
26/07:00pm 8.6 W 33 52 1009.8 - 6.4 - - - - - - -
26/06:35pm 7.3 W 39 62 1009.7 - 6.2 - - - - - - -
26/06:30pm 7.0 W 51 62 1008.5 - 6.0 - - - - - - -
26/06:00pm 9.6 W 39 55 1008.6 - 5.8 - - - - - - -
26/05:30pm 9.4 W 38 58 1008.3 - 5.8 - - - - - - -
26/05:02pm 9.0 W 35 62 1008.0 - 5.8 - - - - - - -
26/05:00pm 8.7 W 46 62 1008.0 - 5.8 - - - - - - -
26/04:30pm 9.1 W 41 63 1007.7 - 5.8 - - - - - - -
26/04:15pm 9.1 W 48 62 1006.9 - 5.8 - - - - - - -
26/04:00pm 8.7 W 36 58 1007.6 - 5.8 - - - - - - -
26/03:30pm 9.0 W 40 58 1007.1 - 5.8 - - - - - - -
26/03:24pm 9.0 W 44 58 1006.9 - 5.8 - - - - - - -
26/03:00pm 8.7 W 32 50 1007.1 - 5.8 - - - - - - -
26/02:30pm 7.5 W 29 46 1006.7 - 5.8 - - - - - - -
26/02:25pm 7.9 WNW 24 52 1007.2 - 5.6 - - - - - - -
26/02:15pm 7.7 W 37 50 1006.3 - 5.4 - - - - - - -
26/02:00pm 7.7 W 24 49 1007.4 - 5.4 - - - - - - -
26/01:51pm 7.5 W 25 48 1007.0 - 5.4 - - - - - - -
26/01:39pm 7.3 W 38 48 1006.4 - 5.4 - - - - - - -
26/01:30pm 7.3 W 26 50 1006.7 - 5.4 - - - - - - -
26/01:00pm 7.0 W 29 52 1006.8 - 5.0 - - - - - - -
26/12:59pm 7.0 W 29 52 1006.6 - 5.0 - - - - - - -
26/12:30pm 7.2 W 26 42 1006.9 - 4.8 - - - - - - -
26/12:00pm 7.1 W 22 42 1007.3 - 4.8 - - - - - - -
26/11:43am 7.5 W 18 47 1007.3 - 4.8 - - - - - - -
26/11:41am 7.5 W 20 47 1007.2 - 4.8 - - - - - - -
26/11:30am 7.5 W 32 48 1006.9 - 4.8 - - - - - - -
26/11:28am 7.5 WNW 36 48 1006.5 - 4.8 - - - - - - -
26/11:00am 6.7 WNW 22 41 1007.3 - 4.8 - - - - - - -
26/10:49am 6.3 W 18 46 1007.4 - 4.8 - - - - - - -
26/10:30am 7.2 W 30 47 1006.6 - 4.0 - - - - - - -
26/10:00am 5.0 W 42 62 1006.4 - 2.4 - - - - - - -
26/09:57am 6.5 W 39 62 1005.0 - 1.8 - - - - - - -
26/09:54am 7.2 WNW 25 42 1006.3 - 1.8 - - - - - - -
26/09:30am 6.9 W 29 49 1005.7 - 0.0 - - - - - - -
26/09:00am 8.4 W 25 41 1005.8 - 7.8 - - - - - - -
26/08:30am 8.5 W 22 39 1006.0 - 7.8 - - - - - - -
26/08:00am 8.5 W 25 42 1005.0 - 7.8 - - - - - - -
26/07:30am 8.3 W 22 39 1005.5 - 7.8 - - - - - - -
26/07:00am 7.5 W 24 42 1004.8 - 7.8 - - - - - - -
26/06:30am 7.2 W 27 45 1004.6 - 6.2 - - - - - - -
26/06:18am 7.5 W 31 59 1003.9 - 5.8 - - - - - - -
26/06:17am 8.0 W 26 46 1004.4 - 5.6 - - - - - - -
26/06:03am 8.5 W 39 55 1003.3 - 5.6 - - - - - - -
26/06:02am 8.9 W 22 48 1003.8 - 5.6 - - - - - - -
26/06:00am 9.0 W 22 34 1004.6 - 5.6 - - - - - - -
26/05:30am 9.1 W 30 45 1003.6 - 5.6 - - - - - - -
26/05:01am 9.1 W 28 44 1003.9 - 5.4 - - - - - - -
26/05:00am 9.1 W 27 44 1003.8 - 5.4 - - - - - - -
26/04:59am 9.2 W 27 44 1004.0 - 5.4 - - - - - - -
26/04:35am 9.4 W 38 52 1003.2 - 5.4 - - - - - - -
26/04:30am 9.3 W 23 48 1004.0 - 5.4 - - - - - - -
26/04:19am 9.4 W 23 48 1004.2 - 5.2 - - - - - - -
26/04:18am 9.5 W 24 48 1004.0 - 5.2 - - - - - - -
26/04:12am 9.3 W 37 48 1003.0 - 5.0 - - - - - - -
26/04:00am 9.2 W 26 38 1004.1 - 5.0 - - - - - - -
26/03:30am 8.5 W 26 51 1003.9 - 4.2 - - - - - - -
26/03:04am 8.2 W 40 55 1002.8 - 2.6 - - - - - - -
26/03:03am 8.4 W 27 55 1003.3 - 2.4 - - - - - - -
26/03:00am 9.2 WSW 20 39 1003.5 - 1.8 - - - - - - -
26/02:59am 9.6 WSW 18 36 1004.1 - 1.8 - - - - - - -
26/02:30am 9.6 N 8 32 1004.6 - 1.8 - - - - - - -
26/02:26am 9.7 WNW 15 32 1004.2 - 1.8 - - - - - - -
26/02:06am 9.5 E 8 33 1004.5 - 1.6 - - - - - - -
26/02:00am 9.5 WNW 23 48 1004.9 - 1.6 - - - - - - -
26/01:30am 9.3 W 20 39 1004.6 - 1.4 - - - - - - -
26/01:00am 10.8 W 23 36 1004.3 - 0.4 - - - - - - -
26/12:59am 11.2 W 22 36 1004.3 - 0.4 - - - - - - -
26/12:30am 12.8 N 18 35 1003.5 - 0.0 - - - - - - -
26/12:00am 13.2 N 22 41 1003.4 - 0.0 - - - - - - -
 
Date/Time
EST
Temp

°C
Wind Pressure Rain
since 9am
mm
Weather Cloud Vis
km
Sea
Height
m
Swell
Dir
 
Speed
knots
Gust
knots
hPa Trend Height
m
Period
s
Dir
25/11:30pm 13.3 NNW 23 46 1003.8 - 0.0 - - - - - - -
25/11:00pm 13.0 NNW 24 47 1004.7 - 0.0 - - - - - - -
25/10:30pm 13.0 N 28 61 1004.5 - 0.0 - - - - - - -
25/10:00pm 12.7 NNW 28 54 1005.1 - 0.0 - - - - - - -
25/09:30pm 12.3 NNW 26 56 1005.6 - 0.0 - - - - - - -
25/09:25pm 12.0 NNW 21 56 1006.0 - 0.0 - - - - - - -
25/09:23pm 12.1 NNW 36 56 1005.5 - 0.0 - - - - - - -
25/09:00pm 11.8 NNW 23 48 1006.3 - 0.0 - - - - - - -
25/08:30pm 11.6 NNW 23 47 1006.0 - 0.0 - - - - - - -
25/08:00pm 11.4 NNW 23 45 1006.5 - 0.0 - - - - - - -
25/07:30pm 11.4 NNW 23 45 1006.6 - 0.0 - - - - - - -
25/07:14pm 11.5 N 21 45 1006.4 - 0.0 - - - - - - -
25/07:00pm 11.3 NNW 18 33 1006.8 - 0.0 - - - - - - -
25/06:30pm 11.0 NNW 18 39 1007.2 - 0.0 - - - - - - -
25/06:20pm 11.0 N 15 35 1007.6 - 0.0 - - - - - - -
25/06:19pm 11.0 N 13 35 1007.4 - 0.0 - - - - - - -
25/06:15pm 11.0 NW 20 35 1007.3 - 0.0 - - - - - - -
25/06:00pm 10.8 N 9 16 1007.9 - 0.0 - - - - - - -
25/05:30pm 10.6 NNW 10 21 1008.3 - 0.0 - - - - - - -
25/05:00pm 10.7 NNW 10 19 1008.7 - 0.0 - - - - - - -
25/04:30pm 11.0 NE 7 23 1008.7 - 0.0 - - - - - - -
25/04:03pm 11.1 W 17 27 1008.3 - 0.0 - - - - - - -
25/04:00pm 11.0 WNW 9 17 1008.8 - 0.0 - - - - - - -
25/03:30pm 11.0 WNW 10 23 1008.7 - 0.0 - - - - - - -
25/03:28pm 11.0 WSW 9 23 1008.5 - 0.0 - - - - - - -
25/03:00pm 11.2 WNW 20 38 1008.2 - 0.0 - - - - - - -
25/02:30pm 11.3 W 24 45 1007.5 - 0.0 - - - - - - -
25/02:00pm 11.3 W 29 46 1007.0 - 0.0 - - - - - - -
25/01:52pm 11.2 WNW 26 44 1007.4 - 0.0 - - - - - - -
25/01:48pm 11.1 WSW 22 44 1007.5 - 0.0 - - - - - - -
25/01:30pm 11.0 W 31 52 1007.3 - 0.0 - - - - - - -

Other Formats:

Comma delimited format used in spreadsheet applications
http://www.bom.gov.au/fwo/IDV60701/IDV60701.94893.axf

JavaScript Object Notation format (JSON) in row-major order
http://www.bom.gov.au/fwo/IDV60701/IDV60701.94893.json